sensor_id;sensor_type;location;lat;lon;timestamp;P1;durP1;ratioP1;P2;durP2;ratioP2
1136;SDS011;557;48.466;7.950;2023-07-29T00:01:08;2.40;;;1.90;;
1136;SDS011;557;48.466;7.950;2023-07-29T00:03:56;2.50;;;2.10;;
1136;SDS011;557;48.466;7.950;2023-07-29T00:06:45;2.50;;;1.90;;
1136;SDS011;557;48.466;7.950;2023-07-29T00:09:33;3.20;;;1.73;;
1136;SDS011;557;48.466;7.950;2023-07-29T00:12:20;2.40;;;1.70;;
1136;SDS011;557;48.466;7.950;2023-07-29T00:15:09;3.00;;;1.60;;
1136;SDS011;557;48.466;7.950;2023-07-29T00:17:57;2.30;;;1.77;;
1136;SDS011;557;48.466;7.950;2023-07-29T00:20:44;2.87;;;1.77;;
1136;SDS011;557;48.466;7.950;2023-07-29T00:23:33;3.33;;;2.30;;
1136;SDS011;557;48.466;7.950;2023-07-29T00:26:21;4.50;;;1.80;;
1136;SDS011;557;48.466;7.950;2023-07-29T00:29:11;2.57;;;1.30;;
1136;SDS011;557;48.466;7.950;2023-07-29T00:31:59;2.17;;;1.80;;
1136;SDS011;557;48.466;7.950;2023-07-29T00:34:47;2.30;;;1.57;;
1136;SDS011;557;48.466;7.950;2023-07-29T00:37:34;2.30;;;1.80;;
1136;SDS011;557;48.466;7.950;2023-07-29T00:40:24;2.53;;;1.87;;
1136;SDS011;557;48.466;7.950;2023-07-29T00:43:15;2.20;;;1.70;;
1136;SDS011;557;48.466;7.950;2023-07-29T00:46:02;3.20;;;1.80;;
1136;SDS011;557;48.466;7.950;2023-07-29T00:48:51;2.07;;;1.60;;
1136;SDS011;557;48.466;7.950;2023-07-29T00:51:38;2.23;;;1.90;;
1136;SDS011;557;48.466;7.950;2023-07-29T00:54:26;1.90;;;1.57;;
1136;SDS011;557;48.466;7.950;2023-07-29T00:57:15;2.33;;;1.83;;
1136;SDS011;557;48.466;7.950;2023-07-29T01:00:05;1.80;;;1.50;;
1136;SDS011;557;48.466;7.950;2023-07-29T01:02:54;2.20;;;1.53;;
1136;SDS011;557;48.466;7.950;2023-07-29T01:05:46;2.53;;;1.93;;
1136;SDS011;557;48.466;7.950;2023-07-29T01:08:44;3.07;;;1.90;;
1136;SDS011;557;48.466;7.950;2023-07-29T01:11:40;3.47;;;1.97;;
1136;SDS011;557;48.466;7.950;2023-07-29T01:14:38;3.00;;;2.07;;
1136;SDS011;557;48.466;7.950;2023-07-29T01:17:30;3.10;;;1.73;;
1136;SDS011;557;48.466;7.950;2023-07-29T01:20:23;2.50;;;1.63;;
1136;SDS011;557;48.466;7.950;2023-07-29T01:23:12;4.50;;;2.07;;
1136;SDS011;557;48.466;7.950;2023-07-29T01:26:01;2.60;;;1.90;;
1136;SDS011;557;48.466;7.950;2023-07-29T01:28:50;3.43;;;1.70;;
1136;SDS011;557;48.466;7.950;2023-07-29T01:31:38;2.33;;;1.80;;
1136;SDS011;557;48.466;7.950;2023-07-29T01:34:32;5.30;;;2.33;;
1136;SDS011;557;48.466;7.950;2023-07-29T01:37:26;2.30;;;1.80;;
1136;SDS011;557;48.466;7.950;2023-07-29T01:40:17;2.77;;;2.27;;
1136;SDS011;557;48.466;7.950;2023-07-29T01:43:07;2.20;;;1.90;;
1136;SDS011;557;48.466;7.950;2023-07-29T01:45:55;2.73;;;1.70;;
1136;SDS011;557;48.466;7.950;2023-07-29T01:48:43;2.30;;;1.70;;
1136;SDS011;557;48.466;7.950;2023-07-29T01:51:31;3.37;;;1.80;;
1136;SDS011;557;48.466;7.950;2023-07-29T01:54:18;2.27;;;1.63;;
1136;SDS011;557;48.466;7.950;2023-07-29T01:57:06;2.97;;;1.83;;
1136;SDS011;557;48.466;7.950;2023-07-29T01:59:55;2.70;;;2.00;;
1136;SDS011;557;48.466;7.950;2023-07-29T02:02:43;2.80;;;1.57;;
1136;SDS011;557;48.466;7.950;2023-07-29T02:05:31;2.80;;;1.70;;
1136;SDS011;557;48.466;7.950;2023-07-29T02:08:19;2.20;;;1.63;;
1136;SDS011;557;48.466;7.950;2023-07-29T02:11:06;5.37;;;1.90;;
1136;SDS011;557;48.466;7.950;2023-07-29T02:13:54;3.13;;;2.00;;
1136;SDS011;557;48.466;7.950;2023-07-29T02:16:44;1.90;;;1.47;;
1136;SDS011;557;48.466;7.950;2023-07-29T02:19:31;1.73;;;1.47;;
1136;SDS011;557;48.466;7.950;2023-07-29T02:22:19;2.50;;;1.97;;
1136;SDS011;557;48.466;7.950;2023-07-29T02:25:07;2.10;;;1.50;;
1136;SDS011;557;48.466;7.950;2023-07-29T02:27:55;3.90;;;2.13;;
1136;SDS011;557;48.466;7.950;2023-07-29T02:30:43;1.70;;;1.30;;
1136;SDS011;557;48.466;7.950;2023-07-29T02:33:32;2.60;;;1.70;;
1136;SDS011;557;48.466;7.950;2023-07-29T02:36:20;3.70;;;1.93;;
1136;SDS011;557;48.466;7.950;2023-07-29T02:39:08;4.90;;;2.10;;
1136;SDS011;557;48.466;7.950;2023-07-29T02:41:56;2.40;;;1.83;;
1136;SDS011;557;48.466;7.950;2023-07-29T02:44:44;2.53;;;2.00;;
1136;SDS011;557;48.466;7.950;2023-07-29T02:47:31;2.50;;;1.57;;
1136;SDS011;557;48.466;7.950;2023-07-29T02:50:21;3.43;;;2.00;;
1136;SDS011;557;48.466;7.950;2023-07-29T02:53:08;2.90;;;1.70;;
1136;SDS011;557;48.466;7.950;2023-07-29T02:55:56;2.27;;;1.50;;
1136;SDS011;557;48.466;7.950;2023-07-29T02:58:44;2.90;;;1.87;;
1136;SDS011;557;48.466;7.950;2023-07-29T03:01:31;1.97;;;1.47;;
1136;SDS011;557;48.466;7.950;2023-07-29T03:04:19;2.50;;;1.80;;
1136;SDS011;557;48.466;7.950;2023-07-29T03:07:09;2.50;;;1.90;;
1136;SDS011;557;48.466;7.950;2023-07-29T03:09:57;2.27;;;1.60;;
1136;SDS011;557;48.466;7.950;2023-07-29T03:12:45;4.17;;;2.10;;
1136;SDS011;557;48.466;7.950;2023-07-29T03:15:33;5.37;;;2.37;;
1136;SDS011;557;48.466;7.950;2023-07-29T03:18:20;4.63;;;2.50;;
1136;SDS011;557;48.466;7.950;2023-07-29T03:21:08;3.77;;;2.60;;
1136;SDS011;557;48.466;7.950;2023-07-29T03:23:58;3.57;;;2.40;;
1136;SDS011;557;48.466;7.950;2023-07-29T03:26:46;4.00;;;2.60;;
1136;SDS011;557;48.466;7.950;2023-07-29T03:29:33;4.70;;;2.50;;
1136;SDS011;557;48.466;7.950;2023-07-29T03:32:21;6.20;;;3.43;;
1136;SDS011;557;48.466;7.950;2023-07-29T03:35:09;5.40;;;2.60;;
1136;SDS011;557;48.466;7.950;2023-07-29T03:37:57;3.77;;;2.50;;
1136;SDS011;557;48.466;7.950;2023-07-29T03:40:46;3.40;;;2.23;;
1136;SDS011;557;48.466;7.950;2023-07-29T03:43:34;5.67;;;2.87;;
1136;SDS011;557;48.466;7.950;2023-07-29T03:46:21;3.37;;;2.70;;
1136;SDS011;557;48.466;7.950;2023-07-29T03:49:09;5.20;;;2.87;;
1136;SDS011;557;48.466;7.950;2023-07-29T03:51:57;4.03;;;2.90;;
1136;SDS011;557;48.466;7.950;2023-07-29T03:54:44;3.23;;;2.80;;
1136;SDS011;557;48.466;7.950;2023-07-29T03:57:33;8.83;;;3.13;;
1136;SDS011;557;48.466;7.950;2023-07-29T04:00:21;4.37;;;3.00;;
1136;SDS011;557;48.466;7.950;2023-07-29T04:03:09;9.50;;;2.90;;
1136;SDS011;557;48.466;7.950;2023-07-29T04:05:57;4.67;;;3.10;;
1136;SDS011;557;48.466;7.950;2023-07-29T04:08:44;6.20;;;2.87;;
1136;SDS011;557;48.466;7.950;2023-07-29T04:11:32;3.83;;;3.23;;
1136;SDS011;557;48.466;7.950;2023-07-29T04:14:22;3.77;;;2.83;;
1136;SDS011;557;48.466;7.950;2023-07-29T04:17:09;2.97;;;2.50;;
1136;SDS011;557;48.466;7.950;2023-07-29T04:19:57;4.40;;;3.13;;
1136;SDS011;557;48.466;7.950;2023-07-29T04:22:45;4.80;;;2.70;;
1136;SDS011;557;48.466;7.950;2023-07-29T04:25:33;2.80;;;2.40;;
1136;SDS011;557;48.466;7.950;2023-07-29T04:28:20;4.90;;;2.80;;
1136;SDS011;557;48.466;7.950;2023-07-29T04:31:09;5.80;;;3.33;;
1136;SDS011;557;48.466;7.950;2023-07-29T04:33:57;3.90;;;2.83;;
1136;SDS011;557;48.466;7.950;2023-07-29T04:36:45;3.67;;;2.70;;
1136;SDS011;557;48.466;7.950;2023-07-29T04:39:34;4.00;;;2.73;;
1136;SDS011;557;48.466;7.950;2023-07-29T04:42:21;4.03;;;2.90;;
1136;SDS011;557;48.466;7.950;2023-07-29T04:45:09;4.70;;;2.83;;
1136;SDS011;557;48.466;7.950;2023-07-29T04:47:59;3.53;;;3.03;;
1136;SDS011;557;48.466;7.950;2023-07-29T04:50:47;6.73;;;3.70;;
1136;SDS011;557;48.466;7.950;2023-07-29T04:53:35;6.77;;;3.17;;
1136;SDS011;557;48.466;7.950;2023-07-29T04:56:23;5.00;;;2.63;;
1136;SDS011;557;48.466;7.950;2023-07-29T04:59:12;3.47;;;2.80;;
1136;SDS011;557;48.466;7.950;2023-07-29T05:01:59;3.60;;;2.77;;
1136;SDS011;557;48.466;7.950;2023-07-29T05:04:49;5.47;;;3.23;;
1136;SDS011;557;48.466;7.950;2023-07-29T05:07:36;5.43;;;2.70;;
1136;SDS011;557;48.466;7.950;2023-07-29T05:10:24;5.20;;;3.97;;
1136;SDS011;557;48.466;7.950;2023-07-29T05:13:12;5.00;;;2.70;;
1136;SDS011;557;48.466;7.950;2023-07-29T05:15:59;4.00;;;2.70;;
1136;SDS011;557;48.466;7.950;2023-07-29T05:18:47;3.33;;;2.70;;
1136;SDS011;557;48.466;7.950;2023-07-29T05:21:37;3.20;;;2.87;;
1136;SDS011;557;48.466;7.950;2023-07-29T05:24:25;4.03;;;3.10;;
1136;SDS011;557;48.466;7.950;2023-07-29T05:27:13;7.50;;;4.13;;
1136;SDS011;557;48.466;7.950;2023-07-29T05:30:00;3.40;;;2.53;;
1136;SDS011;557;48.466;7.950;2023-07-29T05:32:48;3.90;;;2.57;;
1136;SDS011;557;48.466;7.950;2023-07-29T05:35:36;3.43;;;2.47;;
1136;SDS011;557;48.466;7.950;2023-07-29T05:38:25;2.80;;;2.43;;
1136;SDS011;557;48.466;7.950;2023-07-29T05:41:13;3.40;;;3.10;;
1136;SDS011;557;48.466;7.950;2023-07-29T05:44:01;3.37;;;3.00;;
1136;SDS011;557;48.466;7.950;2023-07-29T05:46:49;3.80;;;3.40;;
1136;SDS011;557;48.466;7.950;2023-07-29T05:49:36;3.10;;;2.80;;
1136;SDS011;557;48.466;7.950;2023-07-29T05:52:24;4.40;;;3.30;;
1136;SDS011;557;48.466;7.950;2023-07-29T05:55:13;4.03;;;3.37;;
1136;SDS011;557;48.466;7.950;2023-07-29T05:58:01;4.20;;;2.93;;
1136;SDS011;557;48.466;7.950;2023-07-29T06:00:49;5.87;;;3.33;;
1136;SDS011;557;48.466;7.950;2023-07-29T06:03:37;4.93;;;3.00;;
1136;SDS011;557;48.466;7.950;2023-07-29T06:06:25;3.13;;;2.83;;
1136;SDS011;557;48.466;7.950;2023-07-29T06:09:12;5.70;;;3.43;;
1136;SDS011;557;48.466;7.950;2023-07-29T06:12:02;3.40;;;3.10;;
1136;SDS011;557;48.466;7.950;2023-07-29T06:14:50;4.60;;;3.33;;
1136;SDS011;557;48.466;7.950;2023-07-29T06:17:38;4.50;;;4.10;;
1136;SDS011;557;48.466;7.950;2023-07-29T06:20:27;3.50;;;2.90;;
1136;SDS011;557;48.466;7.950;2023-07-29T06:23:15;3.80;;;3.13;;
1136;SDS011;557;48.466;7.950;2023-07-29T06:26:03;5.13;;;3.37;;
1136;SDS011;557;48.466;7.950;2023-07-29T06:28:54;7.03;;;3.90;;
1136;SDS011;557;48.466;7.950;2023-07-29T06:31:41;2.57;;;2.30;;
1136;SDS011;557;48.466;7.950;2023-07-29T06:34:29;5.43;;;2.80;;
1136;SDS011;557;48.466;7.950;2023-07-29T06:37:17;4.73;;;2.80;;
1136;SDS011;557;48.466;7.950;2023-07-29T06:40:05;3.10;;;2.50;;
1136;SDS011;557;48.466;7.950;2023-07-29T06:42:53;4.93;;;3.57;;
1136;SDS011;557;48.466;7.950;2023-07-29T06:45:42;4.27;;;2.90;;
1136;SDS011;557;48.466;7.950;2023-07-29T06:48:30;3.60;;;2.83;;
1136;SDS011;557;48.466;7.950;2023-07-29T06:51:18;2.73;;;2.47;;
1136;SDS011;557;48.466;7.950;2023-07-29T06:54:06;2.83;;;2.53;;
1136;SDS011;557;48.466;7.950;2023-07-29T06:56:53;3.40;;;2.63;;
1136;SDS011;557;48.466;7.950;2023-07-29T06:59:41;3.47;;;2.30;;
1136;SDS011;557;48.466;7.950;2023-07-29T07:02:30;4.10;;;1.90;;
1136;SDS011;557;48.466;7.950;2023-07-29T07:05:18;2.30;;;1.90;;
1136;SDS011;557;48.466;7.950;2023-07-29T07:08:06;2.77;;;2.00;;
1136;SDS011;557;48.466;7.950;2023-07-29T07:10:53;2.20;;;1.80;;
1136;SDS011;557;48.466;7.950;2023-07-29T07:13:41;2.80;;;1.67;;
1136;SDS011;557;48.466;7.950;2023-07-29T07:16:29;2.20;;;1.70;;
1136;SDS011;557;48.466;7.950;2023-07-29T07:19:18;6.50;;;2.00;;
1136;SDS011;557;48.466;7.950;2023-07-29T07:22:05;2.40;;;2.00;;
1136;SDS011;557;48.466;7.950;2023-07-29T07:24:53;5.10;;;1.80;;
1136;SDS011;557;48.466;7.950;2023-07-29T07:27:41;2.70;;;2.03;;
1136;SDS011;557;48.466;7.950;2023-07-29T07:30:29;2.87;;;2.10;;
1136;SDS011;557;48.466;7.950;2023-07-29T07:33:16;2.83;;;1.67;;
1136;SDS011;557;48.466;7.950;2023-07-29T07:36:05;2.07;;;1.70;;
1136;SDS011;557;48.466;7.950;2023-07-29T07:38:53;2.80;;;1.80;;
1136;SDS011;557;48.466;7.950;2023-07-29T07:41:41;2.10;;;1.60;;
1136;SDS011;557;48.466;7.950;2023-07-29T07:44:29;2.40;;;2.00;;
1136;SDS011;557;48.466;7.950;2023-07-29T07:47:16;2.80;;;2.10;;
1136;SDS011;557;48.466;7.950;2023-07-29T07:50:04;2.40;;;2.10;;
1136;SDS011;557;48.466;7.950;2023-07-29T07:52:54;4.03;;;2.10;;
1136;SDS011;557;48.466;7.950;2023-07-29T07:55:41;2.43;;;1.97;;
1136;SDS011;557;48.466;7.950;2023-07-29T07:58:29;4.50;;;1.83;;
1136;SDS011;557;48.466;7.950;2023-07-29T08:01:17;4.63;;;1.87;;
1136;SDS011;557;48.466;7.950;2023-07-29T08:04:06;2.90;;;2.30;;
1136;SDS011;557;48.466;7.950;2023-07-29T08:06:54;5.83;;;1.80;;
1136;SDS011;557;48.466;7.950;2023-07-29T08:09:43;3.00;;;2.20;;
1136;SDS011;557;48.466;7.950;2023-07-29T08:12:31;3.07;;;1.90;;
1136;SDS011;557;48.466;7.950;2023-07-29T08:15:19;3.57;;;3.20;;
1136;SDS011;557;48.466;7.950;2023-07-29T08:18:07;11.13;;;8.87;;
1136;SDS011;557;48.466;7.950;2023-07-29T08:20:55;2.38;;;2.00;;
1136;SDS011;557;48.466;7.950;2023-07-29T08:23:44;3.50;;;2.50;;
1136;SDS011;557;48.466;7.950;2023-07-29T08:26:34;2.75;;;1.98;;
1136;SDS011;557;48.466;7.950;2023-07-29T08:29:21;2.95;;;2.10;;
1136;SDS011;557;48.466;7.950;2023-07-29T08:32:09;2.35;;;1.88;;
1136;SDS011;557;48.466;7.950;2023-07-29T08:34:57;3.28;;;2.50;;
1136;SDS011;557;48.466;7.950;2023-07-29T08:37:45;2.45;;;2.25;;
1136;SDS011;557;48.466;7.950;2023-07-29T08:40:33;3.15;;;2.85;;
1136;SDS011;557;48.466;7.950;2023-07-29T08:43:27;3.08;;;2.45;;
1136;SDS011;557;48.466;7.950;2023-07-29T08:46:18;3.10;;;2.33;;
1136;SDS011;557;48.466;7.950;2023-07-29T08:49:06;2.83;;;2.53;;
1136;SDS011;557;48.466;7.950;2023-07-29T08:51:54;3.30;;;2.80;;
1136;SDS011;557;48.466;7.950;2023-07-29T08:54:44;3.10;;;2.60;;
1136;SDS011;557;48.466;7.950;2023-07-29T08:57:33;3.95;;;2.70;;
1136;SDS011;557;48.466;7.950;2023-07-29T09:00:23;3.58;;;2.55;;
1136;SDS011;557;48.466;7.950;2023-07-29T09:03:12;3.80;;;2.70;;
1136;SDS011;557;48.466;7.950;2023-07-29T09:06:00;5.03;;;2.95;;
1136;SDS011;557;48.466;7.950;2023-07-29T09:08:49;2.70;;;2.37;;
1136;SDS011;557;48.466;7.950;2023-07-29T09:11:38;4.67;;;2.50;;
1136;SDS011;557;48.466;7.950;2023-07-29T09:14:26;3.60;;;2.50;;
1136;SDS011;557;48.466;7.950;2023-07-29T09:17:16;3.58;;;2.53;;
1136;SDS011;557;48.466;7.950;2023-07-29T09:20:04;3.67;;;2.58;;
1136;SDS011;557;48.466;7.950;2023-07-29T09:22:53;3.10;;;2.35;;
1136;SDS011;557;48.466;7.950;2023-07-29T09:25:42;4.13;;;2.80;;
1136;SDS011;557;48.466;7.950;2023-07-29T09:28:32;3.22;;;2.92;;
1136;SDS011;557;48.466;7.950;2023-07-29T09:31:21;5.07;;;3.70;;
1136;SDS011;557;48.466;7.950;2023-07-29T09:34:12;3.30;;;3.00;;
1136;SDS011;557;48.466;7.950;2023-07-29T09:37:03;4.32;;;3.00;;
1136;SDS011;557;48.466;7.950;2023-07-29T09:39:52;3.30;;;3.00;;
1136;SDS011;557;48.466;7.950;2023-07-29T09:42:40;4.88;;;3.47;;
1136;SDS011;557;48.466;7.950;2023-07-29T09:45:36;3.90;;;3.60;;
1136;SDS011;557;48.466;7.950;2023-07-29T09:48:25;3.92;;;3.63;;
1136;SDS011;557;48.466;7.950;2023-07-29T09:51:15;4.85;;;4.45;;
1136;SDS011;557;48.466;7.950;2023-07-29T09:54:03;4.00;;;3.70;;
1136;SDS011;557;48.466;7.950;2023-07-29T09:56:51;4.10;;;3.75;;
1136;SDS011;557;48.466;7.950;2023-07-29T09:59:39;4.68;;;4.28;;
1136;SDS011;557;48.466;7.950;2023-07-29T10:02:27;4.28;;;3.97;;
1136;SDS011;557;48.466;7.950;2023-07-29T10:05:16;4.88;;;4.30;;
1136;SDS011;557;48.466;7.950;2023-07-29T10:08:05;4.93;;;4.53;;
1136;SDS011;557;48.466;7.950;2023-07-29T10:10:54;5.50;;;5.10;;
1136;SDS011;557;48.466;7.950;2023-07-29T10:13:43;5.85;;;5.45;;
1136;SDS011;557;48.466;7.950;2023-07-29T10:16:33;5.78;;;5.38;;
1136;SDS011;557;48.466;7.950;2023-07-29T10:19:23;5.68;;;5.28;;
1136;SDS011;557;48.466;7.950;2023-07-29T10:22:13;5.80;;;5.40;;
1136;SDS011;557;48.466;7.950;2023-07-29T10:25:07;7.03;;;6.63;;
1136;SDS011;557;48.466;7.950;2023-07-29T10:27:56;8.38;;;7.60;;
1136;SDS011;557;48.466;7.950;2023-07-29T10:30:51;8.02;;;7.63;;
1136;SDS011;557;48.466;7.950;2023-07-29T10:33:39;8.20;;;7.70;;
1136;SDS011;557;48.466;7.950;2023-07-29T10:36:27;8.48;;;8.02;;
1136;SDS011;557;48.466;7.950;2023-07-29T10:39:15;8.90;;;8.40;;
1136;SDS011;557;48.466;7.950;2023-07-29T10:42:09;9.35;;;8.85;;
1136;SDS011;557;48.466;7.950;2023-07-29T10:44:57;9.07;;;8.68;;
1136;SDS011;557;48.466;7.950;2023-07-29T10:47:48;9.32;;;8.93;;
1136;SDS011;557;48.466;7.950;2023-07-29T10:50:36;9.82;;;9.23;;
1136;SDS011;557;48.466;7.950;2023-07-29T10:53:26;10.00;;;9.50;;
1136;SDS011;557;48.466;7.950;2023-07-29T10:56:20;10.10;;;9.60;;
1136;SDS011;557;48.466;7.950;2023-07-29T11:02:28;10.82;;;10.32;;
1136;SDS011;557;48.466;7.950;2023-07-29T11:05:17;11.50;;;11.00;;
1136;SDS011;557;48.466;7.950;2023-07-29T11:08:14;11.45;;;10.93;;
1136;SDS011;557;48.466;7.950;2023-07-29T11:11:05;11.80;;;11.20;;
1136;SDS011;557;48.466;7.950;2023-07-29T11:13:54;11.77;;;11.18;;
1136;SDS011;557;48.466;7.950;2023-07-29T11:16:47;12.07;;;11.30;;
1136;SDS011;557;48.466;7.950;2023-07-29T11:19:37;12.52;;;11.82;;
1136;SDS011;557;48.466;7.950;2023-07-29T11:22:26;13.02;;;12.32;;
1136;SDS011;557;48.466;7.950;2023-07-29T11:25:15;12.90;;;12.30;;
1136;SDS011;557;48.466;7.950;2023-07-29T11:28:04;13.38;;;12.77;;
1136;SDS011;557;48.466;7.950;2023-07-29T11:30:53;12.77;;;12.18;;
1136;SDS011;557;48.466;7.950;2023-07-29T11:33:43;13.05;;;12.45;;
1136;SDS011;557;48.466;7.950;2023-07-29T11:36:32;13.57;;;12.98;;
1136;SDS011;557;48.466;7.950;2023-07-29T11:39:20;13.70;;;13.10;;
1136;SDS011;557;48.466;7.950;2023-07-29T11:42:10;13.88;;;13.18;;
1136;SDS011;557;48.466;7.950;2023-07-29T11:44:58;14.32;;;13.52;;
1136;SDS011;557;48.466;7.950;2023-07-29T11:47:47;14.30;;;13.60;;
1136;SDS011;557;48.466;7.950;2023-07-29T11:50:36;13.27;;;12.57;;
1136;SDS011;557;48.466;7.950;2023-07-29T11:53:26;14.23;;;13.52;;
1136;SDS011;557;48.466;7.950;2023-07-29T11:56:16;14.25;;;13.55;;
1136;SDS011;557;48.466;7.950;2023-07-29T11:59:04;15.30;;;14.50;;
1136;SDS011;557;48.466;7.950;2023-07-29T12:01:54;15.13;;;14.32;;
1136;SDS011;557;48.466;7.950;2023-07-29T12:04:43;14.90;;;14.20;;
1136;SDS011;557;48.466;7.950;2023-07-29T12:07:34;14.55;;;13.60;;
1136;SDS011;557;48.466;7.950;2023-07-29T12:10:22;14.20;;;13.50;;
1136;SDS011;557;48.466;7.950;2023-07-29T12:13:11;13.93;;;13.23;;
1136;SDS011;557;48.466;7.950;2023-07-29T12:16:01;14.40;;;13.60;;
1136;SDS011;557;48.466;7.950;2023-07-29T12:18:50;15.07;;;14.27;;
1136;SDS011;557;48.466;7.950;2023-07-29T12:21:38;15.02;;;14.23;;
1136;SDS011;557;48.466;7.950;2023-07-29T12:24:28;14.40;;;13.70;;
1136;SDS011;557;48.466;7.950;2023-07-29T12:27:17;15.10;;;14.40;;
1136;SDS011;557;48.466;7.950;2023-07-29T12:30:05;15.15;;;14.45;;
1136;SDS011;557;48.466;7.950;2023-07-29T12:32:56;15.63;;;14.82;;
1136;SDS011;557;48.466;7.950;2023-07-29T12:35:45;14.65;;;13.95;;
1136;SDS011;557;48.466;7.950;2023-07-29T12:38:33;14.07;;;13.38;;
1136;SDS011;557;48.466;7.950;2023-07-29T12:41:24;14.60;;;13.80;;
1136;SDS011;557;48.466;7.950;2023-07-29T12:44:12;15.90;;;15.10;;
1136;SDS011;557;48.466;7.950;2023-07-29T12:47:00;14.40;;;13.70;;
1136;SDS011;557;48.466;7.950;2023-07-29T12:49:49;13.88;;;13.18;;
1136;SDS011;557;48.466;7.950;2023-07-29T12:52:37;14.65;;;13.90;;
1136;SDS011;557;48.466;7.950;2023-07-29T12:55:26;15.25;;;14.45;;
1136;SDS011;557;48.466;7.950;2023-07-29T12:58:15;15.43;;;14.63;;
1136;SDS011;557;48.466;7.950;2023-07-29T13:01:03;16.00;;;15.23;;
1136;SDS011;557;48.466;7.950;2023-07-29T13:03:51;15.38;;;14.63;;
1136;SDS011;557;48.466;7.950;2023-07-29T13:06:39;16.95;;;16.05;;
1136;SDS011;557;48.466;7.950;2023-07-29T13:09:26;17.20;;;16.30;;
1136;SDS011;557;48.466;7.950;2023-07-29T13:12:14;17.83;;;16.92;;
1136;SDS011;557;48.466;7.950;2023-07-29T13:15:05;17.90;;;16.90;;
1136;SDS011;557;48.466;7.950;2023-07-29T13:17:54;17.95;;;16.95;;
1136;SDS011;557;48.466;7.950;2023-07-29T13:20:42;17.38;;;16.58;;
1136;SDS011;557;48.466;7.950;2023-07-29T13:23:30;17.00;;;16.10;;
1136;SDS011;557;48.466;7.950;2023-07-29T13:26:17;17.15;;;16.25;;
1136;SDS011;557;48.466;7.950;2023-07-29T13:29:05;17.20;;;16.20;;
1136;SDS011;557;48.466;7.950;2023-07-29T13:31:55;16.08;;;15.27;;
1136;SDS011;557;48.466;7.950;2023-07-29T13:34:43;17.30;;;16.27;;
1136;SDS011;557;48.466;7.950;2023-07-29T13:37:31;18.00;;;17.00;;
1136;SDS011;557;48.466;7.950;2023-07-29T13:40:19;17.02;;;16.13;;
1136;SDS011;557;48.466;7.950;2023-07-29T13:43:07;17.17;;;16.27;;
1136;SDS011;557;48.466;7.950;2023-07-29T13:45:55;16.50;;;15.60;;
1136;SDS011;557;48.466;7.950;2023-07-29T13:48:44;17.52;;;16.63;;
1136;SDS011;557;48.466;7.950;2023-07-29T13:51:32;16.90;;;16.00;;
1136;SDS011;557;48.466;7.950;2023-07-29T13:54:20;17.13;;;16.23;;
1136;SDS011;557;48.466;7.950;2023-07-29T13:57:10;16.50;;;15.65;;
1136;SDS011;557;48.466;7.950;2023-07-29T13:59:59;18.40;;;17.20;;
1136;SDS011;557;48.466;7.950;2023-07-29T14:02:47;17.63;;;16.63;;
1136;SDS011;557;48.466;7.950;2023-07-29T14:05:36;19.20;;;18.10;;
1136;SDS011;557;48.466;7.950;2023-07-29T14:08:24;18.10;;;17.10;;
1136;SDS011;557;48.466;7.950;2023-07-29T14:11:12;18.65;;;17.55;;
1136;SDS011;557;48.466;7.950;2023-07-29T14:14:00;17.52;;;16.63;;
1136;SDS011;557;48.466;7.950;2023-07-29T14:16:48;18.33;;;17.27;;
1136;SDS011;557;48.466;7.950;2023-07-29T14:19:36;18.25;;;17.17;;
1136;SDS011;557;48.466;7.950;2023-07-29T14:22:26;17.42;;;16.42;;
1136;SDS011;557;48.466;7.950;2023-07-29T14:25:14;16.30;;;15.50;;
1136;SDS011;557;48.466;7.950;2023-07-29T14:28:02;17.35;;;16.35;;
1136;SDS011;557;48.466;7.950;2023-07-29T14:30:50;16.70;;;15.90;;
1136;SDS011;557;48.466;7.950;2023-07-29T14:33:38;15.77;;;14.98;;
1136;SDS011;557;48.466;7.950;2023-07-29T14:36:26;16.38;;;15.48;;
1136;SDS011;557;48.466;7.950;2023-07-29T14:39:15;15.80;;;15.00;;
1136;SDS011;557;48.466;7.950;2023-07-29T14:42:03;17.27;;;16.10;;
1136;SDS011;557;48.466;7.950;2023-07-29T14:44:52;16.98;;;15.98;;
1136;SDS011;557;48.466;7.950;2023-07-29T14:47:40;16.75;;;15.90;;
1136;SDS011;557;48.466;7.950;2023-07-29T14:50:28;17.52;;;16.50;;
1136;SDS011;557;48.466;7.950;2023-07-29T14:53:16;16.27;;;15.48;;
1136;SDS011;557;48.466;7.950;2023-07-29T14:56:05;15.68;;;14.88;;
1136;SDS011;557;48.466;7.950;2023-07-29T14:58:53;16.30;;;15.50;;
1136;SDS011;557;48.466;7.950;2023-07-29T15:01:41;17.45;;;16.35;;
1136;SDS011;557;48.466;7.950;2023-07-29T15:04:29;15.93;;;15.13;;
1136;SDS011;557;48.466;7.950;2023-07-29T15:07:18;17.40;;;15.85;;
1136;SDS011;557;48.466;7.950;2023-07-29T15:10:07;15.25;;;14.35;;
1136;SDS011;557;48.466;7.950;2023-07-29T15:12:57;15.70;;;14.80;;
1136;SDS011;557;48.466;7.950;2023-07-29T15:15:45;15.70;;;14.90;;
1136;SDS011;557;48.466;7.950;2023-07-29T15:18:35;18.23;;;16.63;;
1136;SDS011;557;48.466;7.950;2023-07-29T15:21:23;20.48;;;18.90;;
1136;SDS011;557;48.466;7.950;2023-07-29T15:24:11;16.80;;;15.90;;
1136;SDS011;557;48.466;7.950;2023-07-29T15:26:59;16.90;;;16.00;;
1136;SDS011;557;48.466;7.950;2023-07-29T15:29:49;15.88;;;15.07;;
1136;SDS011;557;48.466;7.950;2023-07-29T15:32:37;16.27;;;15.38;;
1136;SDS011;557;48.466;7.950;2023-07-29T15:35:26;16.30;;;15.40;;
1136;SDS011;557;48.466;7.950;2023-07-29T15:38:14;16.20;;;15.35;;
1136;SDS011;557;48.466;7.950;2023-07-29T15:41:02;15.98;;;15.13;;
1136;SDS011;557;48.466;7.950;2023-07-29T15:43:50;15.88;;;14.98;;
1136;SDS011;557;48.466;7.950;2023-07-29T15:46:42;16.02;;;15.23;;
1136;SDS011;557;48.466;7.950;2023-07-29T15:49:30;15.65;;;14.85;;
1136;SDS011;557;48.466;7.950;2023-07-29T15:52:20;15.15;;;14.35;;
1136;SDS011;557;48.466;7.950;2023-07-29T15:55:08;14.63;;;13.68;;
1136;SDS011;557;48.466;7.950;2023-07-29T15:57:56;12.90;;;12.30;;
1136;SDS011;557;48.466;7.950;2023-07-29T16:00:45;12.60;;;12.00;;
1136;SDS011;557;48.466;7.950;2023-07-29T16:03:35;11.90;;;11.30;;
1136;SDS011;557;48.466;7.950;2023-07-29T16:06:26;11.07;;;10.48;;
1136;SDS011;557;48.466;7.950;2023-07-29T16:09:15;10.98;;;10.27;;
1136;SDS011;557;48.466;7.950;2023-07-29T16:12:10;11.00;;;10.30;;
1136;SDS011;557;48.466;7.950;2023-07-29T16:14:58;10.38;;;9.77;;
1136;SDS011;557;48.466;7.950;2023-07-29T16:17:46;9.00;;;8.40;;
1136;SDS011;557;48.466;7.950;2023-07-29T16:20:39;8.13;;;7.72;;
1136;SDS011;557;48.466;7.950;2023-07-29T16:23:27;7.40;;;6.90;;
1136;SDS011;557;48.466;7.950;2023-07-29T16:26:16;6.03;;;5.60;;
1136;SDS011;557;48.466;7.950;2023-07-29T16:29:04;7.03;;;4.43;;
1136;SDS011;557;48.466;7.950;2023-07-29T16:31:53;6.10;;;3.77;;
1136;SDS011;557;48.466;7.950;2023-07-29T16:34:40;7.80;;;4.50;;
1136;SDS011;557;48.466;7.950;2023-07-29T16:37:30;4.60;;;3.80;;
1136;SDS011;557;48.466;7.950;2023-07-29T16:40:18;4.13;;;3.73;;
1136;SDS011;557;48.466;7.950;2023-07-29T16:43:05;4.60;;;3.47;;
1136;SDS011;557;48.466;7.950;2023-07-29T16:45:53;6.67;;;3.87;;
1136;SDS011;557;48.466;7.950;2023-07-29T16:48:41;4.87;;;3.80;;
1136;SDS011;557;48.466;7.950;2023-07-29T16:51:29;5.00;;;4.03;;
1136;SDS011;557;48.466;7.950;2023-07-29T16:54:18;6.40;;;4.00;;
1136;SDS011;557;48.466;7.950;2023-07-29T16:57:06;4.43;;;3.80;;
1136;SDS011;557;48.466;7.950;2023-07-29T16:59:54;4.30;;;3.77;;
1136;SDS011;557;48.466;7.950;2023-07-29T17:02:42;5.07;;;4.13;;
1136;SDS011;557;48.466;7.950;2023-07-29T17:05:30;5.60;;;4.40;;
1136;SDS011;557;48.466;7.950;2023-07-29T17:08:17;4.27;;;3.87;;
1136;SDS011;557;48.466;7.950;2023-07-29T17:11:06;8.33;;;4.37;;
1136;SDS011;557;48.466;7.950;2023-07-29T17:13:54;7.10;;;3.47;;
1136;SDS011;557;48.466;7.950;2023-07-29T17:16:42;5.90;;;4.00;;
1136;SDS011;557;48.466;7.950;2023-07-29T17:19:30;5.00;;;3.63;;
1136;SDS011;557;48.466;7.950;2023-07-29T17:22:18;3.73;;;3.20;;
1136;SDS011;557;48.466;7.950;2023-07-29T17:25:06;4.60;;;3.50;;
1136;SDS011;557;48.466;7.950;2023-07-29T17:27:56;4.50;;;3.40;;
1136;SDS011;557;48.466;7.950;2023-07-29T17:30:48;4.40;;;3.47;;
1136;SDS011;557;48.466;7.950;2023-07-29T17:33:36;4.83;;;4.33;;
1136;SDS011;557;48.466;7.950;2023-07-29T17:36:23;5.63;;;4.20;;
1136;SDS011;557;48.466;7.950;2023-07-29T17:39:11;4.80;;;4.03;;